createdAt,value
2018-01-21T00:00:01.469Z,982.02
2018-01-21T00:01:13.058Z,982.06
2018-01-21T00:02:23.215Z,982.02
2018-01-21T00:03:32.737Z,982.02
2018-01-21T00:04:42.568Z,982
2018-01-21T00:05:52.342Z,982.05
2018-01-21T00:07:02.396Z,982.01
2018-01-21T00:08:12.452Z,982.01
2018-01-21T00:09:22.505Z,982.03
2018-01-21T00:10:32.621Z,982.02
2018-01-21T00:11:42.681Z,982.02
2018-01-21T00:12:52.723Z,981.96
2018-01-21T00:14:02.805Z,982.01
2018-01-21T00:15:12.849Z,982
2018-01-21T00:16:23.023Z,981.97
2018-01-21T00:17:33.073Z,982.02
2018-01-21T00:18:43.106Z,982
2018-01-21T00:19:52.918Z,981.98
2018-01-21T00:21:02.753Z,982
2018-01-21T00:22:12.937Z,981.98
2018-01-21T00:23:23.735Z,982
2018-01-21T00:24:33.827Z,982
2018-01-21T00:25:43.864Z,982
2018-01-21T00:26:53.918Z,981.99
2018-01-21T00:28:03.964Z,981.98
2018-01-21T00:29:13.504Z,981.99
2018-01-21T00:30:23.567Z,981.96
2018-01-21T00:31:34.116Z,981.97
2018-01-21T00:32:44.180Z,981.99
2018-01-21T00:33:54.806Z,982.01
2018-01-21T00:35:04.864Z,982.01
2018-01-21T00:36:14.932Z,981.99
2018-01-21T00:37:25.002Z,981.99
2018-01-21T00:38:35.059Z,982.01
2018-01-21T00:39:45.166Z,982
2018-01-21T00:40:54.965Z,981.97
2018-01-21T00:42:04.999Z,981.97
2018-01-21T00:43:15.072Z,981.98
2018-01-21T00:44:25.108Z,981.99
2018-01-21T00:45:36.460Z,982
2018-01-21T00:46:46.526Z,982.02
2018-01-21T00:47:57.024Z,981.97
2018-01-21T00:49:07.080Z,982.01
2018-01-21T00:50:16.921Z,981.95
2018-01-21T00:51:26.970Z,981.99
2018-01-21T00:52:36.747Z,981.97
2018-01-21T00:53:46.524Z,981.99
2018-01-21T00:54:56.573Z,981.97
2018-01-21T00:56:06.616Z,981.96
2018-01-21T00:57:16.729Z,981.94
2018-01-21T00:58:26.528Z,981.96
2018-01-21T00:59:36.585Z,981.97
2018-01-21T01:00:46.644Z,981.99
2018-01-21T01:01:56.759Z,981.98
2018-01-21T01:03:06.823Z,982
2018-01-21T01:04:16.852Z,981.97
2018-01-21T01:05:26.652Z,981.93
2018-01-21T01:06:36.704Z,981.88
2018-01-21T01:07:46.800Z,981.95
2018-01-21T01:08:56.895Z,981.94
2018-01-21T01:10:06.962Z,981.9
2018-01-21T01:11:17.004Z,981.94
2018-01-21T01:12:27.064Z,981.95
2018-01-21T01:13:36.859Z,981.94
2018-01-21T01:14:46.945Z,981.97
2018-01-21T01:15:57.005Z,982.04
2018-01-21T01:17:06.536Z,982.01
2018-01-21T01:18:16.318Z,981.99
2018-01-21T01:19:27.457Z,982.01
2018-01-21T01:20:37.282Z,982
2018-01-21T01:21:46.299Z,981.99
2018-01-21T01:22:56.377Z,982
2018-01-21T01:24:06.430Z,981.97
2018-01-21T01:25:16.489Z,981.96
2018-01-21T01:26:26.531Z,981.98
2018-01-21T01:27:36.562Z,981.98
2018-01-21T01:28:46.844Z,981.92
2018-01-21T01:29:56.890Z,981.95
2018-01-21T01:31:06.925Z,981.99
2018-01-21T01:32:16.724Z,981.96
2018-01-21T01:33:26.509Z,981.93
2018-01-21T01:34:36.548Z,981.93
2018-01-21T01:35:46.599Z,981.93
2018-01-21T01:36:56.686Z,981.92
2018-01-21T01:38:06.538Z,981.92
2018-01-21T01:39:16.321Z,981.92
2018-01-21T01:40:26.099Z,981.93
2018-01-21T01:41:36.174Z,981.96
2018-01-21T01:42:45.953Z,981.96
2018-01-21T01:43:56.003Z,982
2018-01-21T01:45:06.056Z,982.01
2018-01-21T01:46:15.849Z,981.96
2018-01-21T01:47:25.888Z,981.97
2018-01-21T01:48:35.694Z,981.99
2018-01-21T01:49:45.799Z,981.98
2018-01-21T01:50:55.853Z,981.97
2018-01-21T01:52:05.374Z,981.97
2018-01-21T01:53:16.034Z,981.97
2018-01-21T01:54:26.094Z,981.96
2018-01-21T01:55:35.925Z,981.94
2018-01-21T01:56:45.968Z,981.93
2018-01-21T01:57:55.480Z,981.9
2018-01-21T01:59:05.281Z,981.87
2018-01-21T02:00:15.348Z,981.85
2018-01-21T02:01:25.393Z,981.89
2018-01-21T02:02:35.426Z,981.89
2018-01-21T02:03:45.463Z,981.93
2018-01-21T02:04:55.500Z,981.93
2018-01-21T02:06:05.546Z,981.92
2018-01-21T02:07:15.590Z,981.93
2018-01-21T02:08:25.625Z,981.95
2018-01-21T02:09:35.671Z,981.94
2018-01-21T02:10:45.457Z,981.94
2018-01-21T02:11:55.501Z,981.9
2018-01-21T02:13:05.590Z,981.9
2018-01-21T02:14:15.621Z,981.88
2018-01-21T02:15:25.670Z,981.9
2018-01-21T02:16:35.706Z,981.93
2018-01-21T02:17:45.770Z,981.94
2018-01-21T02:18:55.805Z,981.88
2018-01-21T02:20:05.592Z,981.88
2018-01-21T02:21:15.643Z,981.9
2018-01-21T02:22:25.677Z,981.86
2018-01-21T02:23:35.717Z,981.88
2018-01-21T02:24:45.509Z,981.89
2018-01-21T02:25:55.554Z,981.9
2018-01-21T02:27:05.606Z,981.88
2018-01-21T02:28:15.646Z,981.88
2018-01-21T02:29:25.430Z,981.86
2018-01-21T02:30:35.255Z,981.82
2018-01-21T02:31:45.324Z,981.81
2018-01-21T02:32:55.108Z,981.78
2018-01-21T02:34:04.884Z,981.79
2018-01-21T02:35:14.669Z,981.82
2018-01-21T02:36:24.778Z,981.85
2018-01-21T02:37:34.554Z,981.92
2018-01-21T02:38:44.599Z,981.97
2018-01-21T02:39:54.662Z,982
2018-01-21T02:41:04.716Z,982.01
2018-01-21T02:42:14.796Z,982.03
2018-01-21T02:43:24.851Z,982.09
2018-01-21T02:44:34.899Z,982.05
2018-01-21T02:45:44.959Z,982.01
2018-01-21T02:46:55.016Z,982.04
2018-01-21T02:48:05.166Z,982.01
2018-01-21T02:49:14.959Z,982.02
2018-01-21T02:50:24.749Z,982.03
2018-01-21T02:51:34.796Z,982.05
2018-01-21T02:52:44.836Z,982.08
2018-01-21T02:53:54.663Z,982.15
2018-01-21T02:55:05.330Z,982.22
2018-01-21T02:56:15.363Z,982.26
2018-01-21T02:57:25.413Z,982.3
2018-01-21T02:58:35.196Z,982.3
2018-01-21T02:59:45.240Z,982.29
2018-01-21T03:00:55.288Z,982.3
2018-01-21T03:02:05.345Z,982.34
2018-01-21T03:03:15.391Z,982.35
2018-01-21T03:34:36.677Z,982.39
2018-01-21T03:35:46.191Z,982.34
2018-01-21T03:36:55.959Z,982.25
2018-01-21T03:38:05.999Z,982.31
2018-01-21T03:39:15.515Z,982.31
2018-01-21T03:40:25.592Z,982.33
2018-01-21T03:41:35.403Z,982.32
2018-01-21T03:42:45.460Z,982.32
2018-01-21T03:43:55.508Z,982.32
2018-01-21T03:45:05.532Z,982.32
2018-01-21T03:46:15.310Z,982.31
2018-01-21T03:47:25.097Z,982.33
2018-01-21T03:48:34.620Z,982.39
2018-01-21T03:49:44.672Z,982.43
2018-01-21T03:50:54.707Z,982.45
2018-01-21T03:52:04.490Z,982.49
2018-01-21T03:53:14.529Z,982.48
2018-01-21T03:54:24.574Z,982.42
2018-01-21T03:55:34.385Z,982.43
2018-01-21T03:56:44.436Z,982.39
2018-01-21T03:57:54.584Z,982.39
2018-01-21T03:59:04.382Z,982.42
2018-01-21T04:00:14.173Z,982.42
2018-01-21T04:01:23.979Z,982.43
2018-01-21T04:02:34.022Z,982.5
2018-01-21T04:03:44.053Z,982.46
2018-01-21T04:04:54.098Z,982.5
2018-01-21T04:06:04.133Z,982.52
2018-01-21T04:07:13.929Z,982.51
2018-01-21T04:08:23.710Z,982.59
2018-01-21T04:09:33.766Z,982.59
2018-01-21T04:10:43.565Z,982.5
2018-01-21T04:11:53.352Z,982.54
2018-01-21T04:13:03.404Z,982.56
2018-01-21T04:14:13.448Z,982.63
2018-01-21T04:15:23.535Z,982.63
2018-01-21T04:16:33.082Z,982.67
2018-01-21T04:17:43.115Z,982.69
2018-01-21T04:18:53.165Z,982.73
2018-01-21T04:20:02.943Z,982.74
2018-01-21T04:21:12.721Z,982.78
2018-01-21T04:22:22.765Z,982.81
2018-01-21T04:23:32.569Z,982.79
2018-01-21T04:24:42.606Z,982.81
2018-01-21T04:25:52.387Z,982.8
2018-01-21T04:27:02.495Z,982.77
2018-01-21T04:28:12.555Z,982.77
2018-01-21T04:29:22.605Z,982.78
2018-01-21T04:30:32.659Z,982.77
2018-01-21T04:31:42.702Z,982.79
2018-01-21T04:32:52.747Z,982.79
2018-01-21T04:34:02.537Z,982.79
2018-01-21T04:35:12.565Z,982.81
2018-01-21T04:36:22.608Z,982.88
2018-01-21T04:37:32.391Z,982.9
2018-01-21T04:38:42.185Z,982.91
2018-01-21T04:39:52.236Z,983.01
2018-01-21T04:41:02.283Z,983
2018-01-21T04:42:12.057Z,983
2018-01-21T04:43:21.852Z,982.94
2018-01-21T04:44:31.954Z,983
2018-01-21T04:45:42.001Z,983.02
2018-01-21T04:46:51.809Z,983.03
2018-01-21T04:48:01.836Z,983.02
2018-01-21T04:49:11.880Z,983.03
2018-01-21T04:50:21.929Z,983.02
2018-01-21T04:51:31.709Z,983
2018-01-21T04:52:41.757Z,983.06
2018-01-21T04:53:51.535Z,983.05
2018-01-21T04:55:01.568Z,983.1
2018-01-21T04:56:11.397Z,983.08
2018-01-21T04:57:21.446Z,983.11
2018-01-21T04:58:31.485Z,983.15
2018-01-21T04:59:41.526Z,983.18
2018-01-21T05:00:51.564Z,983.23
2018-01-21T05:02:01.612Z,983.24
2018-01-21T05:03:11.661Z,983.29
2018-01-21T05:04:21.456Z,983.32
2018-01-21T05:05:31.500Z,983.32
2018-01-21T05:06:41.032Z,983.42
2018-01-21T05:07:51.070Z,983.41
2018-01-21T05:09:00.593Z,983.44
2018-01-21T05:10:10.792Z,983.42
2018-01-21T05:11:20.835Z,983.45
2018-01-21T05:12:30.611Z,983.47
2018-01-21T05:13:40.140Z,983.5
2018-01-21T05:14:50.177Z,983.55
2018-01-21T05:15:59.958Z,983.54
2018-01-21T05:17:09.751Z,983.56
2018-01-21T05:18:19.539Z,983.58
2018-01-21T05:19:29.593Z,983.59
2018-01-21T05:20:39.637Z,983.65
2018-01-21T05:21:49.412Z,983.71
2018-01-21T05:22:59.453Z,983.73
2018-01-21T05:24:09.226Z,983.75
2018-01-21T05:25:18.746Z,983.77
2018-01-21T05:26:28.537Z,983.8
2018-01-21T05:27:38.579Z,983.76
2018-01-21T05:28:48.623Z,983.78
2018-01-21T05:29:58.666Z,983.78
2018-01-21T05:31:08.750Z,983.84
2018-01-21T05:32:18.515Z,983.83
2018-01-21T05:33:28.547Z,983.85
2018-01-21T05:34:38.340Z,983.86
2018-01-21T05:35:48.378Z,983.9
2018-01-21T05:36:58.637Z,983.95
2018-01-21T05:38:08.695Z,983.92
2018-01-21T05:39:18.207Z,983.99
2018-01-21T05:40:28.267Z,983.99
2018-01-21T05:41:38.308Z,984.02
2018-01-21T05:42:48.397Z,984.05
2018-01-21T05:43:58.442Z,984.05
2018-01-21T05:45:08.496Z,984.12
2018-01-21T05:46:18.574Z,984.11
2018-01-21T05:47:28.362Z,984.19
2018-01-21T05:48:38.452Z,984.21
2018-01-21T05:49:48.506Z,984.28
2018-01-21T05:50:58.283Z,984.26
2018-01-21T05:52:08.320Z,984.32
2018-01-21T05:53:18.353Z,984.33
2018-01-21T05:54:28.405Z,984.29
2018-01-21T05:55:38.178Z,984.29
2018-01-21T05:56:48.226Z,984.29
2018-01-21T05:57:58.266Z,984.32
2018-01-21T05:59:07.777Z,984.34
2018-01-21T06:00:17.901Z,984.38
2018-01-21T06:01:27.964Z,984.4
2018-01-21T06:02:37.759Z,984.44
2018-01-21T06:03:47.801Z,984.45
2018-01-21T06:04:57.845Z,984.46
2018-01-21T06:06:07.897Z,984.5
2018-01-21T06:07:17.984Z,984.51
2018-01-21T06:08:27.807Z,984.54
2018-01-21T06:09:37.898Z,984.56
2018-01-21T06:10:47.968Z,984.61
2018-01-21T06:11:58.063Z,984.63
2018-01-21T06:13:08.127Z,984.68
2018-01-21T06:14:18.180Z,984.67
2018-01-21T06:15:27.960Z,984.65
2018-01-21T06:16:37.986Z,984.64
2018-01-21T06:17:48.038Z,984.66
2018-01-21T06:18:58.079Z,984.68
2018-01-21T06:20:07.602Z,984.64
2018-01-21T06:21:17.391Z,984.68
2018-01-21T06:22:27.443Z,984.76
2018-01-21T06:23:37.525Z,984.78
2018-01-21T06:24:47.561Z,984.81
2018-01-21T06:25:57.607Z,984.85
2018-01-21T06:27:07.396Z,984.87
2018-01-21T06:28:17.190Z,984.86
2018-01-21T06:29:26.971Z,984.93
2018-01-21T06:30:37.064Z,984.95
2018-01-21T06:31:47.105Z,985.05
2018-01-21T06:32:57.153Z,985.07
2018-01-21T06:34:07.205Z,985.11
2018-01-21T06:35:16.526Z,985.12
2018-01-21T06:36:26.313Z,985.14
2018-01-21T06:37:36.356Z,985.17
2018-01-21T06:38:46.416Z,985.18
2018-01-21T06:39:56.184Z,985.17
2018-01-21T06:41:06.024Z,985.2
2018-01-21T06:42:16.082Z,985.2
2018-01-21T06:43:25.876Z,985.22
2018-01-21T06:44:35.942Z,985.28
2018-01-21T06:45:45.995Z,985.29
2018-01-21T06:46:56.044Z,985.33
2018-01-21T06:48:06.090Z,985.33
2018-01-21T06:49:16.147Z,985.27
2018-01-21T06:50:26.185Z,985.35
2018-01-21T06:51:36.242Z,985.35
2018-01-21T06:52:46.018Z,985.47
2018-01-21T06:53:56.064Z,985.51
2018-01-21T06:55:06.116Z,985.47
2018-01-21T06:56:16.178Z,985.49
2018-01-21T06:57:26.225Z,985.52
2018-01-21T06:58:36.012Z,985.55
2018-01-21T06:59:46.058Z,985.53
2018-01-21T07:00:56.137Z,985.57
2018-01-21T07:02:06.178Z,985.57
2018-01-21T07:03:16.225Z,985.6
2018-01-21T07:04:26.392Z,985.64
2018-01-21T07:05:36.457Z,985.65
2018-01-21T07:06:46.493Z,985.67
2018-01-21T07:07:56.305Z,985.71
2018-01-21T07:09:06.371Z,985.73
2018-01-21T07:10:16.212Z,985.73
2018-01-21T07:11:26.312Z,985.8
2018-01-21T07:12:36.095Z,985.83
2018-01-21T07:13:45.894Z,985.85
2018-01-21T07:14:55.686Z,985.86
2018-01-21T07:16:05.787Z,985.91
2018-01-21T07:17:15.834Z,985.92
2018-01-21T07:18:25.896Z,985.92
2018-01-21T07:19:36.023Z,985.95
2018-01-21T07:20:46.064Z,985.92
2018-01-21T07:21:56.097Z,985.95
2018-01-21T07:23:06.157Z,985.96
2018-01-21T07:24:16.216Z,985.95
2018-01-21T07:25:26.007Z,986.03
2018-01-21T07:26:36.066Z,986.01
2018-01-21T07:27:46.102Z,986.07
2018-01-21T07:28:56.135Z,986.08
2018-01-21T07:30:06.211Z,986.11
2018-01-21T07:31:16.247Z,986.11
2018-01-21T07:32:26.290Z,986.07
2018-01-21T07:33:36.400Z,986.08
2018-01-21T07:34:46.446Z,986.17
2018-01-21T07:35:56.535Z,986.17
2018-01-21T07:37:06.576Z,986.17
2018-01-21T07:38:16.357Z,986.21
2018-01-21T07:39:26.393Z,986.21
2018-01-21T07:40:35.921Z,986.27
2018-01-21T07:41:45.456Z,986.24
2018-01-21T07:42:55.240Z,986.3
2018-01-21T07:44:05.015Z,986.35
2018-01-21T07:45:15.212Z,986.33
2018-01-21T07:46:24.738Z,986.36
2018-01-21T07:47:34.793Z,986.37
2018-01-21T07:48:44.849Z,986.31
2018-01-21T07:49:54.680Z,986.34
2018-01-21T07:51:04.844Z,986.3
2018-01-21T07:52:14.644Z,986.3
2018-01-21T07:53:24.420Z,986.31
2018-01-21T07:54:34.465Z,986.32
2018-01-21T07:55:44.492Z,986.39
2018-01-21T07:56:54.579Z,986.37
2018-01-21T07:58:04.364Z,986.48
2018-01-21T07:59:15.061Z,986.43
2018-01-21T08:00:25.114Z,986.47
2018-01-21T08:01:35.194Z,986.54
2018-01-21T08:02:45.228Z,986.61
2018-01-21T08:03:55.273Z,986.6
2018-01-21T08:05:05.070Z,986.64
2018-01-21T08:06:15.144Z,986.66
2018-01-21T08:07:24.930Z,986.63
2018-01-21T08:08:34.761Z,986.66
2018-01-21T08:09:44.821Z,986.75
2018-01-21T08:10:54.598Z,986.75
2018-01-21T08:12:04.650Z,986.75
2018-01-21T08:13:14.747Z,986.77
2018-01-21T08:14:24.841Z,986.79
2018-01-21T08:15:34.967Z,986.78
2018-01-21T08:16:44.761Z,986.79
2018-01-21T08:17:54.818Z,986.83
2018-01-21T08:19:04.864Z,986.87
2018-01-21T08:20:14.906Z,986.83
2018-01-21T08:21:24.948Z,986.84
2018-01-21T08:22:35.005Z,986.83
2018-01-21T08:23:45.057Z,986.81
2018-01-21T08:24:55.115Z,986.8
2018-01-21T08:26:05.154Z,986.79
2018-01-21T08:27:15.186Z,986.83
2018-01-21T08:28:25.243Z,986.84
2018-01-21T08:29:35.286Z,986.85
2018-01-21T08:30:45.347Z,986.88
2018-01-21T08:31:55.397Z,986.9
2018-01-21T08:33:05.446Z,986.97
2018-01-21T08:34:15.510Z,986.95
2018-01-21T08:35:25.557Z,986.98
2018-01-21T08:36:35.355Z,987.01
2018-01-21T08:37:45.188Z,987.06
2018-01-21T08:38:54.979Z,987.07
2018-01-21T08:40:05.036Z,987.09
2018-01-21T08:41:15.094Z,987.07
2018-01-21T08:42:24.882Z,987.1
2018-01-21T08:43:34.926Z,987.12
2018-01-21T08:44:44.989Z,987.18
2018-01-21T08:45:54.789Z,987.15
2018-01-21T08:47:06.153Z,987.15
2018-01-21T08:48:16.206Z,987.21
2018-01-21T08:49:26.325Z,987.21
2018-01-21T08:50:36.401Z,987.24
2018-01-21T08:51:47.050Z,987.24
2018-01-21T08:52:57.121Z,987.28
2018-01-21T08:54:07.212Z,987.23
2018-01-21T08:55:17.386Z,987.29
2018-01-21T08:56:27.465Z,987.33
2018-01-21T08:57:37.260Z,987.3
2018-01-21T08:58:47.338Z,987.43
2018-01-21T08:59:57.138Z,987.43
2018-01-21T09:01:06.937Z,987.44
2018-01-21T09:02:16.757Z,987.39
2018-01-21T09:03:26.554Z,987.41
2018-01-21T09:04:36.677Z,987.4
2018-01-21T09:05:46.737Z,987.45
2018-01-21T09:06:56.786Z,987.54
2018-01-21T09:08:06.856Z,987.52
2018-01-21T09:09:17.001Z,987.55
2018-01-21T09:10:27.067Z,987.62
2018-01-21T09:11:37.118Z,987.6
2018-01-21T09:12:47.179Z,987.63
2018-01-21T09:13:57.244Z,987.67
2018-01-21T09:15:07.413Z,987.72
2018-01-21T09:16:17.478Z,987.76
2018-01-21T09:17:27.536Z,987.79
2018-01-21T09:18:37.319Z,987.76
2018-01-21T09:19:47.622Z,987.86
2018-01-21T09:20:57.677Z,987.81
2018-01-21T09:22:07.483Z,987.84
2018-01-21T09:23:17.021Z,987.87
2018-01-21T09:24:26.661Z,987.95
2018-01-21T09:25:36.737Z,987.91
2018-01-21T09:26:46.830Z,987.93
2018-01-21T09:27:56.623Z,987.9
2018-01-21T09:29:06.685Z,987.95
2018-01-21T09:30:16.508Z,987.98
2018-01-21T09:31:26.566Z,987.99
2018-01-21T09:32:36.625Z,988.03
2018-01-21T09:33:46.742Z,988.03
2018-01-21T09:34:56.348Z,988.08
2018-01-21T09:36:06.519Z,988.05
2018-01-21T09:37:16.573Z,988.07
2018-01-21T09:38:26.369Z,988.09
2018-01-21T09:39:36.419Z,988.12
2018-01-21T09:40:46.226Z,988.11
2018-01-21T09:41:56.246Z,988.11
2018-01-21T09:43:06.308Z,988.16
2018-01-21T09:44:16.106Z,988.13
2018-01-21T09:45:26.137Z,988.17
2018-01-21T09:46:36.181Z,988.21
2018-01-21T09:47:46.231Z,988.26
2018-01-21T09:48:56.286Z,988.27
2018-01-21T09:50:06.352Z,988.34
2018-01-21T09:51:16.417Z,988.33
2018-01-21T09:52:26.486Z,988.32
2018-01-21T09:53:36.591Z,988.31
2018-01-21T09:54:46.633Z,988.31
2018-01-21T09:55:56.179Z,988.31
2018-01-21T09:57:06.254Z,988.4
2018-01-21T09:58:16.350Z,988.4
2018-01-21T09:59:27.330Z,988.41
2018-01-21T10:00:37.383Z,988.46
2018-01-21T10:01:47.464Z,988.44
2018-01-21T10:02:57.619Z,988.46
2018-01-21T10:04:07.690Z,988.55
2018-01-21T10:05:17.494Z,988.57
2018-01-21T10:06:27.541Z,988.63
2018-01-21T10:07:37.594Z,988.66
2018-01-21T10:08:47.165Z,988.65
2018-01-21T10:09:56.985Z,988.67
2018-01-21T10:11:07.048Z,988.66
2018-01-21T10:12:16.853Z,988.72
2018-01-21T10:13:26.901Z,988.73
2018-01-21T10:14:36.955Z,988.7
2018-01-21T10:15:47.005Z,988.78
2018-01-21T10:16:56.620Z,988.81
2018-01-21T10:18:06.668Z,988.82
2018-01-21T10:19:16.729Z,988.88
2018-01-21T10:20:26.513Z,988.86
2018-01-21T10:21:36.572Z,988.85
2018-01-21T10:22:46.695Z,988.93
2018-01-21T10:23:56.217Z,988.93
2018-01-21T10:25:06.038Z,988.96
2018-01-21T10:26:16.120Z,988.93
2018-01-21T10:27:26.166Z,988.98
2018-01-21T10:28:36.243Z,988.95
2018-01-21T10:29:46.024Z,989.02
2018-01-21T10:30:55.634Z,989.06
2018-01-21T10:32:05.684Z,989.03
2018-01-21T10:33:15.480Z,989.02
2018-01-21T10:34:25.584Z,989.14
2018-01-21T10:35:35.641Z,989.14
2018-01-21T10:36:45.691Z,989.05
2018-01-21T10:37:55.512Z,989.17
2018-01-21T10:39:05.308Z,989.13
2018-01-21T10:40:14.925Z,989.16
2018-01-21T10:41:25.028Z,989.18
2018-01-21T10:42:35.103Z,989.14
2018-01-21T10:43:45.185Z,989.21
2018-01-21T10:44:55.303Z,989.21
2018-01-21T10:46:05.426Z,989.24
2018-01-21T10:47:15.508Z,989.24
2018-01-21T10:48:25.368Z,989.24
2018-01-21T10:49:34.901Z,989.28
2018-01-21T10:50:44.959Z,989.27
2018-01-21T10:51:55.127Z,989.29
2018-01-21T10:53:05.184Z,989.28
2018-01-21T10:54:15.245Z,989.33
2018-01-21T10:55:25.324Z,989.29
2018-01-21T10:56:35.110Z,989.35
2018-01-21T10:57:45.175Z,989.37
2018-01-21T10:58:55.241Z,989.38
2018-01-21T11:00:05.288Z,989.33
2018-01-21T11:01:15.294Z,989.36
2018-01-21T11:02:25.450Z,989.41
2018-01-21T11:03:35.514Z,989.48
2018-01-21T11:04:45.600Z,989.43
2018-01-21T11:05:55.637Z,989.5
2018-01-21T11:07:05.717Z,989.48
2018-01-21T11:08:15.780Z,989.51
2018-01-21T11:09:25.566Z,989.52
2018-01-21T11:10:35.610Z,989.55
2018-01-21T11:11:45.655Z,989.58
2018-01-21T11:12:55.445Z,989.57
2018-01-21T11:14:06.127Z,989.55
2018-01-21T11:15:15.920Z,989.59
2018-01-21T11:16:25.712Z,989.6
2018-01-21T11:17:35.240Z,989.67
2018-01-21T11:18:45.293Z,989.65
2018-01-21T11:19:55.390Z,989.65
2018-01-21T11:21:05.452Z,989.72
2018-01-21T11:22:15.496Z,989.71
2018-01-21T11:23:25.565Z,989.74
2018-01-21T11:24:35.626Z,989.72
2018-01-21T11:25:45.709Z,989.79
2018-01-21T11:26:55.753Z,989.76
2018-01-21T11:28:05.816Z,989.83
2018-01-21T11:29:15.869Z,989.82
2018-01-21T11:30:25.944Z,989.82
2018-01-21T11:31:36.046Z,989.87
2018-01-21T11:32:46.114Z,989.81
2018-01-21T11:33:56.202Z,989.81
2018-01-21T11:35:06.266Z,989.81
2018-01-21T11:36:16.317Z,989.83
2018-01-21T11:37:26.489Z,989.9
2018-01-21T11:38:36.289Z,989.85
2018-01-21T11:39:46.484Z,989.88
2018-01-21T11:40:56.286Z,989.93
2018-01-21T11:42:06.082Z,989.95
2018-01-21T11:43:15.941Z,989.98
2018-01-21T11:44:26.065Z,989.98
2018-01-21T11:45:36.120Z,989.99
2018-01-21T11:46:46.732Z,989.95
2018-01-21T11:47:56.805Z,990.03
2018-01-21T11:49:06.951Z,990
2018-01-21T11:50:17.001Z,990.04
2018-01-21T11:51:27.659Z,989.99
2018-01-21T11:52:37.722Z,990.05
2018-01-21T11:53:47.787Z,990.06
2018-01-21T11:54:57.124Z,990.09
2018-01-21T11:56:07.217Z,990.11
2018-01-21T11:57:17.272Z,990.15
2018-01-21T11:58:27.351Z,990.18
2018-01-21T11:59:38.231Z,990.21
2018-01-21T12:00:49.130Z,990.23
2018-01-21T12:01:58.951Z,990.25
2018-01-21T12:03:09.009Z,990.27
2018-01-21T12:04:19.068Z,990.3
2018-01-21T12:05:29.998Z,990.29
2018-01-21T12:06:40.062Z,990.33
2018-01-21T12:07:50.175Z,990.32
2018-01-21T12:09:00.247Z,990.35
2018-01-21T12:10:10.343Z,990.37
2018-01-21T12:11:20.418Z,990.42
2018-01-21T12:12:30.534Z,990.44
2018-01-21T12:13:40.694Z,990.42
2018-01-21T12:14:50.491Z,990.36
2018-01-21T12:16:00.319Z,990.45
2018-01-21T12:17:10.405Z,990.43
2018-01-21T12:18:20.644Z,990.5
2018-01-21T12:19:31.310Z,990.49
2018-01-21T12:20:41.417Z,990.47
2018-01-21T12:21:51.476Z,990.53
2018-01-21T12:23:01.995Z,990.51
2018-01-21T12:24:11.857Z,990.6
2018-01-21T12:25:21.922Z,990.63
2018-01-21T12:26:31.980Z,990.65
2018-01-21T12:27:41.757Z,990.64
2018-01-21T12:28:52.076Z,990.68
2018-01-21T12:30:02.210Z,990.67
2018-01-21T12:31:13.144Z,990.7
2018-01-21T12:32:23.212Z,990.75
2018-01-21T12:33:33.267Z,990.75
2018-01-21T12:34:44.252Z,990.72
2018-01-21T12:35:55.207Z,990.77
2018-01-21T12:37:05.286Z,990.8
2018-01-21T12:38:15.093Z,990.79
2018-01-21T12:39:25.201Z,990.76
2018-01-21T12:40:35.451Z,990.82
2018-01-21T12:41:45.263Z,990.8
2018-01-21T12:42:55.641Z,990.82
2018-01-21T12:44:05.734Z,990.88
2018-01-21T12:45:15.618Z,990.9
2018-01-21T12:46:25.682Z,990.89
2018-01-21T12:47:35.767Z,990.93
2018-01-21T12:48:45.893Z,990.86
2018-01-21T12:49:55.962Z,990.97
2018-01-21T12:51:06.182Z,991.01
2018-01-21T12:52:16.264Z,991.03
2018-01-21T12:53:26.082Z,991.04
2018-01-21T12:54:35.913Z,991.03
2018-01-21T12:55:46.012Z,991.1
2018-01-21T12:56:56.078Z,991.05
2018-01-21T12:58:06.124Z,991.09
2018-01-21T12:59:16.286Z,991.12
2018-01-21T13:00:26.365Z,991.15
2018-01-21T13:01:36.422Z,991.18
2018-01-21T13:02:46.472Z,991.23
2018-01-21T13:03:56.549Z,991.26
2018-01-21T13:05:06.623Z,991.26
2018-01-21T13:06:16.684Z,991.21
2018-01-21T13:07:26.761Z,991.29
2018-01-21T13:08:36.898Z,991.34
2018-01-21T13:09:46.951Z,991.33
2018-01-21T13:10:56.744Z,991.34
2018-01-21T13:12:06.819Z,991.38
2018-01-21T13:13:17.488Z,991.42
2018-01-21T13:14:27.677Z,991.47
2018-01-21T13:15:37.757Z,991.49
2018-01-21T13:16:47.828Z,991.53
2018-01-21T13:17:57.646Z,991.54
2018-01-21T13:19:07.712Z,991.56
2018-01-21T13:20:18.580Z,991.59
2018-01-21T13:21:28.708Z,991.67
2018-01-21T13:22:38.581Z,991.61
2018-01-21T13:23:48.665Z,991.68
2018-01-21T13:24:58.738Z,991.73
2018-01-21T13:26:08.063Z,991.77
2018-01-21T13:27:17.871Z,991.75
2018-01-21T13:28:27.954Z,991.79
2018-01-21T13:29:38.033Z,991.82
2018-01-21T13:30:48.110Z,991.84
2018-01-21T13:31:58.256Z,991.85
2018-01-21T13:33:08.626Z,991.88
2018-01-21T13:34:18.670Z,991.93
2018-01-21T13:35:28.470Z,991.9
2018-01-21T13:36:38.580Z,991.94
2018-01-21T13:37:48.753Z,992
2018-01-21T13:38:58.568Z,991.99
2018-01-21T13:40:09.887Z,992.01
2018-01-21T13:41:19.684Z,992.02
2018-01-21T13:42:29.805Z,992.15
2018-01-21T13:43:39.346Z,992.1
2018-01-21T13:44:49.398Z,992.17
2018-01-21T13:45:59.558Z,992.17
2018-01-21T13:47:09.640Z,992.18
2018-01-21T13:48:19.700Z,992.25
2018-01-21T13:49:29.820Z,992.28
2018-01-21T13:50:39.662Z,992.25
2018-01-21T13:51:49.475Z,992.31
2018-01-21T13:52:59.547Z,992.34
2018-01-21T13:54:09.633Z,992.36
2018-01-21T13:55:19.845Z,992.41
2018-01-21T13:56:29.657Z,992.45
2018-01-21T13:57:39.755Z,992.46
2018-01-21T13:58:49.835Z,992.47
2018-01-21T13:59:59.643Z,992.46
2018-01-21T14:01:09.776Z,992.53
2018-01-21T14:02:19.863Z,992.55
2018-01-21T14:03:29.974Z,992.58
2018-01-21T14:04:39.840Z,992.64
2018-01-21T14:05:49.637Z,992.74
2018-01-21T14:06:59.526Z,992.57
2018-01-21T14:08:09.768Z,992.67
2018-01-21T14:09:19.369Z,992.68
2018-01-21T14:10:29.682Z,992.69
2018-01-21T14:11:39.483Z,992.7
2018-01-21T14:12:49.604Z,992.79
2018-01-21T14:13:59.468Z,992.77
2018-01-21T14:15:10.423Z,992.8
2018-01-21T14:16:20.491Z,992.83
2018-01-21T14:17:32.006Z,992.8
2018-01-21T14:18:42.233Z,992.91
2018-01-21T14:19:52.357Z,992.89
2018-01-21T14:21:02.434Z,992.9
2018-01-21T14:22:12.659Z,992.91
2018-01-21T14:23:22.828Z,992.97
2018-01-21T14:24:33.103Z,992.96
2018-01-21T14:25:43.232Z,993.02
2018-01-21T14:26:54.564Z,993.01
2018-01-21T14:28:04.704Z,993.03
2018-01-21T14:29:14.970Z,993.07
2018-01-21T14:30:25.549Z,993.09
2018-01-21T14:31:36.219Z,993.05
2018-01-21T14:32:46.868Z,993.1
2018-01-21T14:33:57.850Z,993.17
2018-01-21T14:35:09.608Z,993.17
2018-01-21T14:36:19.706Z,993.12
2018-01-21T14:37:30.070Z,993.2
2018-01-21T14:38:39.919Z,993.15
2018-01-21T14:39:49.465Z,993.25
2018-01-21T14:40:59.559Z,993.24
2018-01-21T14:42:09.648Z,993.23
2018-01-21T14:44:46.710Z,993.31
2018-01-21T14:48:49.477Z,993.34
2018-01-21T14:50:29.711Z,993.42
2018-01-21T14:51:39.729Z,993.42
2018-01-21T14:52:49.544Z,993.45
2018-01-21T14:53:59.797Z,993.51
2018-01-21T14:55:09.887Z,993.48
2018-01-21T14:56:21.318Z,993.52
2018-01-21T14:57:31.224Z,993.51
2018-01-21T14:58:41.291Z,993.52
2018-01-21T14:59:51.242Z,993.51
2018-01-21T15:01:01.776Z,993.53
2018-01-21T15:02:12.279Z,993.52
2018-01-21T15:03:22.147Z,993.63
2018-01-21T15:04:32.521Z,993.66
2018-01-21T15:05:43.056Z,993.71
2018-01-21T15:06:53.428Z,993.67
2018-01-21T15:10:35.885Z,993.8
2018-01-21T15:11:46.023Z,993.79
2018-01-21T15:12:55.337Z,993.75
2018-01-21T15:14:05.266Z,993.86
2018-01-21T15:15:15.340Z,993.92